Time;durP1;ratioP1;P1;durP2;ratioP2;P2;SDS_P1;SDS_P2;PMS_P1;PMS_P2;Temp;Humidity;BMP_temperature;BMP_pressure;BME280_temperature;BME280_humidity;BME280_pressure;Samples;Min_cycle;Max_cycle;Signal;HPM_P1;HPM_P2
2022/11/25 05:22:34;;;;;;;1.13;1.13;;;;;;;1.25;100.00;100144.81;5109649;27;20327;-67
2022/11/25 05:25:00;;;;;;;1.83;1.73;;;;;;;1.28;100.00;100149.00;5108319;28;20491;-67
2022/11/25 05:27:27;;;;;;;1.90;1.67;;;;;;;1.30;100.00;100147.94;5108261;28;20032;-68
2022/11/25 05:29:55;;;;;;;3.28;2.13;;;;;;;1.34;100.00;100154.59;5108115;28;20119;-67
2022/11/25 05:32:22;;;;;;;4.93;1.85;;;;;;;1.33;100.00;100152.94;5108058;28;20028;-67
2022/11/25 05:34:48;;;;;;;2.75;1.73;;;;;;;1.26;100.00;100162.25;5108760;28;20036;-67
2022/11/25 05:37:14;;;;;;;3.42;2.22;;;;;;;1.29;100.00;100159.38;5108011;28;20232;-67
2022/11/25 05:39:47;;;;;;;6.30;3.00;;;;;;;1.34;100.00;100156.41;5107932;28;20119;-67
2022/11/25 05:42:18;;;;;;;6.55;1.95;;;;;;;1.28;100.00;100155.06;5109468;28;20047;-67
2022/11/25 05:44:44;;;;;;;3.65;2.30;;;;;;;1.24;100.00;100150.16;5107922;28;20036;-66
2022/11/25 05:47:09;;;;;;;6.10;1.90;;;;;;;1.23;100.00;100157.19;5107780;28;20139;-67
2022/11/25 05:49:36;;;;;;;2.83;2.15;;;;;;;1.17;100.00;100162.91;5107785;28;20071;-67
2022/11/25 05:52:02;;;;;;;3.20;1.95;;;;;;;1.18;100.00;100169.03;5108815;28;20463;-67
2022/11/25 05:54:32;;;;;;;4.25;1.58;;;;;;;1.14;100.00;100178.91;5107731;28;20035;-67
2022/11/25 05:56:58;;;;;;;2.20;1.98;;;;;;;1.20;100.00;100178.44;5107533;28;20627;-66
2022/11/25 05:59:43;;;;;;;2.85;1.38;;;;;;;1.17;100.00;100172.56;5107652;28;20032;-66
2022/11/25 06:02:13;;;;;;;1.95;1.85;;;;;;;1.19;100.00;100181.19;5106304;28;20039;-67
2022/11/25 06:04:39;;;;;;;2.33;1.83;;;;;;;1.24;100.00;100186.91;5108919;28;20488;-67
2022/11/25 06:07:06;;;;;;;2.60;1.60;;;;;;;1.26;100.00;100188.47;5107289;28;20477;-66
2022/11/25 06:09:31;;;;;;;2.47;1.92;;;;;;;1.29;100.00;100190.84;5107182;28;20043;-66
2022/11/25 06:11:57;;;;;;;1.90;1.80;;;;;;;1.33;100.00;100189.69;5106990;28;20068;-66
2022/11/25 06:14:23;;;;;;;3.83;1.90;;;;;;;1.35;100.00;100193.03;5090451;28;20038;-66
2022/11/25 06:16:49;;;;;;;1.85;1.60;;;;;;;1.42;100.00;100197.81;5107109;28;20044;-65
2022/11/25 06:19:21;;;;;;;2.13;1.67;;;;;;;1.45;100.00;100200.22;5107275;28;20032;-65
2022/11/25 06:21:47;;;;;;;3.38;2.03;;;;;;;1.43;100.00;100199.47;5122255;28;20039;-63
2022/11/25 06:24:13;;;;;;;1.60;1.50;;;;;;;1.43;100.00;100197.69;5127425;28;20041;-63
2022/11/25 06:26:40;;;;;;;2.30;1.80;;;;;;;1.47;100.00;100212.28;5127532;28;20039;-62
2022/11/25 06:29:06;;;;;;;5.07;2.40;;;;;;;1.52;100.00;100204.06;5127523;28;20499;-63
2022/11/25 06:31:32;;;;;;;4.22;2.15;;;;;;;1.55;100.00;100206.44;5127110;28;20028;-63
2022/11/25 06:34:22;;;;;;;4.78;2.88;;;;;;;1.64;100.00;100211.00;5113664;28;20039;-62
2022/11/25 06:36:49;;;;;;;2.22;1.63;;;;;;;1.69;100.00;100215.88;5113626;28;20036;-62
2022/11/25 06:39:14;;;;;;;8.10;2.35;;;;;;;1.73;100.00;100207.66;5114925;28;20032;-63
2022/11/25 06:41:40;;;;;;;4.15;2.47;;;;;;;1.81;100.00;100205.28;5114513;28;20035;-63
2022/11/25 06:44:05;;;;;;;4.57;2.50;;;;;;;1.83;100.00;100210.44;5114916;28;20047;-63
2022/11/25 06:46:31;;;;;;;3.60;2.10;;;;;;;1.85;100.00;100214.59;5113591;28;20253;-63
2022/11/25 06:48:59;;;;;;;4.20;2.00;;;;;;;1.90;100.00;100230.84;5114818;28;20031;-63
2022/11/25 06:51:24;;;;;;;5.68;2.92;;;;;;;1.97;100.00;100246.16;5114471;28;20115;-64
2022/11/25 06:53:50;;;;;;;2.40;1.58;;;;;;;2.04;100.00;100257.84;5114679;28;20115;-63
2022/11/25 06:56:21;;;;;;;4.13;2.47;;;;;;;2.13;100.00;100254.50;5114447;28;20519;-63
2022/11/25 06:58:48;;;;;;;3.80;2.28;;;;;;;2.21;100.00;100260.00;5115000;28;20392;-63
2022/11/25 07:01:23;;;;;;;1.88;1.60;;;;;;;2.28;100.00;100252.47;5114295;28;20035;-63
2022/11/25 07:03:52;;;;;;;5.03;1.95;;;;;;;2.35;100.00;100256.31;5114424;28;20051;-63
2022/11/25 07:06:18;;;;;;;5.90;2.75;;;;;;;2.39;100.00;100255.09;5114030;28;20028;-63
2022/11/25 07:08:45;;;;;;;3.25;2.38;;;;;;;2.44;100.00;100261.66;5114097;28;20028;-63
2022/11/25 07:11:32;;;;;;;3.55;2.33;;;;;;;2.43;100.00;100262.63;5114129;28;20032;-64
2022/11/25 07:14:00;;;;;;;9.75;2.40;;;;;;;2.47;100.00;100270.25;5114226;28;20127;-63
2022/11/25 07:16:26;;;;;;;;;;;;;;;2.51;100.00;100274.34;5114630;28;20038;-63
2022/11/25 07:18:51;;;;;;;2.65;1.73;;;;;;;2.52;100.00;100260.22;5114488;28;20006;-63
2022/11/25 07:21:20;;;;;;;8.32;2.30;;;;;;;2.57;100.00;100256.28;5113794;28;20039;-63
2022/11/25 07:23:46;;;;;;;2.95;2.08;;;;;;;2.62;100.00;100248.03;5114184;28;20040;-63
2022/11/25 07:26:15;;;;;;;2.78;2.13;;;;;;;2.70;100.00;100251.72;5114048;28;20035;-63
2022/11/25 07:28:41;;;;;;;2.70;2.50;;;;;;;2.74;100.00;100249.69;5113859;28;20042;-63
2022/11/25 07:31:08;;;;;;;7.18;2.10;;;;;;;2.75;100.00;100251.34;5113713;28;20031;-63
2022/11/25 07:33:35;;;;;;;4.47;2.50;;;;;;;2.79;100.00;100242.22;5114034;28;20035;-64
2022/11/25 07:36:03;;;;;;;2.72;1.70;;;;;;;2.85;100.00;100244.38;5113779;28;20042;-64
2022/11/25 07:38:28;;;;;;;;;;;;;;;2.89;100.00;100237.09;5114289;28;20036;-64
2022/11/25 07:40:53;;;;;;;4.45;2.35;;;;;;;2.92;100.00;100244.72;5113615;28;19939;-63
2022/11/25 07:43:19;;;;;;;2.17;1.95;;;;;;;2.97;100.00;100253.91;5113650;28;20043;-63
2022/11/25 07:45:44;;;;;;;4.38;2.05;;;;;;;3.02;100.00;100266.72;5111481;28;20070;-63
2022/11/25 07:48:10;;;;;;;3.22;1.58;;;;;;;3.08;100.00;100257.47;5113608;28;20408;-62
2022/11/25 07:50:35;;;;;;;2.38;1.80;;;;;;;3.14;100.00;100262.25;5113343;28;20082;-63
2022/11/25 07:53:00;;;;;;;2.25;1.88;;;;;;;3.21;100.00;100263.41;5113640;28;20071;-64
2022/11/25 07:55:26;;;;;;;2.20;1.85;;;;;;;3.32;100.00;100273.03;5113451;28;20126;-64
2022/11/25 07:57:51;;;;;;;4.45;2.20;;;;;;;3.40;100.00;100289.06;5113426;28;20122;-64
2022/11/25 08:00:17;;;;;;;4.55;1.95;;;;;;;3.47;100.00;100285.81;5113082;27;20027;-64
2022/11/25 08:02:42;;;;;;;4.60;1.67;;;;;;;3.51;100.00;100287.19;5113402;28;20530;-64
2022/11/25 08:05:08;;;;;;;3.30;1.38;;;;;;;3.55;100.00;100287.81;5113390;28;20496;-64
2022/11/25 08:07:33;;;;;;;5.45;1.98;;;;;;;3.63;100.00;100282.72;5113238;28;20488;-64
2022/11/25 08:09:59;;;;;;;3.38;1.92;;;;;;;3.70;100.00;100290.94;5113224;28;20036;-63
2022/11/25 08:12:24;;;;;;;1.65;1.55;;;;;;;3.73;100.00;100288.06;5112901;28;20510;-63
2022/11/25 08:14:49;;;;;;;2.72;1.65;;;;;;;3.76;100.00;100282.53;5113080;28;20038;-61
2022/11/25 08:17:15;;;;;;;4.03;1.55;;;;;;;3.81;100.00;100277.72;5113277;28;20047;-61
2022/11/25 08:19:40;;;;;;;2.17;1.60;;;;;;;3.80;100.00;100279.53;5113143;28;20035;-63
2022/11/25 08:22:06;;;;;;;2.75;1.55;;;;;;;3.87;100.00;100271.94;5112481;28;20038;-64
2022/11/25 08:24:31;;;;;;;1.63;1.45;;;;;;;3.91;100.00;100281.25;5113055;28;20118;-64
2022/11/25 08:27:00;;;;;;;3.03;1.67;;;;;;;3.98;100.00;100282.41;5111551;28;20400;-64
2022/11/25 08:29:25;;;;;;;4.57;1.50;;;;;;;4.08;100.00;100274.53;5112964;28;20031;-64
2022/11/25 08:31:51;;;;;;;4.38;1.88;;;;;;;4.14;100.00;100274.03;5112689;28;20030;-64
2022/11/25 08:34:20;;;;;;;2.53;1.67;;;;;;;4.22;100.00;100276.00;5112754;28;20404;-64
2022/11/25 08:36:47;;;;;;;2.17;1.63;;;;;;;4.31;100.00;100277.88;5111470;28;20028;-64
2022/11/25 08:39:12;;;;;;;3.45;1.50;;;;;;;4.33;100.00;100287.28;5112820;28;20050;-65
2022/11/25 08:41:37;;;;;;;3.75;1.85;;;;;;;4.43;100.00;100286.50;5112315;28;20062;-65
2022/11/25 08:44:06;;;;;;;2.22;1.75;;;;;;;4.48;100.00;100287.75;5112665;28;20553;-65
2022/11/25 08:46:35;;;;;;;5.80;1.92;;;;;;;4.54;100.00;100294.31;5112574;28;20027;-64
2022/11/25 08:49:01;;;;;;;2.67;2.03;;;;;;;4.56;100.00;100284.47;5112722;28;20038;-64
2022/11/25 08:51:29;;;;;;;4.28;2.33;;;;;;;4.67;100.00;100294.09;5100382;28;20481;-63
2022/11/25 08:53:56;;;;;;;3.90;2.28;;;;;;;4.73;100.00;100298.81;5092413;28;20389;-65
2022/11/25 08:56:23;;;;;;;6.30;1.98;;;;;;;4.77;100.00;100301.06;5089886;28;20035;-64
2022/11/25 08:58:49;;;;;;;3.15;1.85;;;;;;;4.84;100.00;100306.66;5091382;28;20036;-64
2022/11/25 09:01:16;;;;;;;4.57;1.98;;;;;;;4.90;100.00;100312.22;5091256;28;20032;-65
2022/11/25 09:03:45;;;;;;;2.45;1.65;;;;;;;4.90;100.00;100314.03;5091865;28;20085;-64
2022/11/25 09:06:11;;;;;;;4.45;2.35;;;;;;;4.97;100.00;100309.88;5091958;28;20044;-64
2022/11/25 09:08:39;;;;;;;7.80;1.77;;;;;;;4.99;100.00;100315.84;5092252;28;20036;-64
2022/11/25 09:11:05;;;;;;;4.60;2.00;;;;;;;5.05;100.00;100325.88;5090008;28;20035;-63
2022/11/25 09:13:31;;;;;;;4.55;2.15;;;;;;;5.07;100.00;100337.13;5091884;28;20392;-64
2022/11/25 09:15:57;;;;;;;3.08;1.50;;;;;;;5.12;100.00;100340.19;5091714;28;20051;-64
2022/11/25 09:18:25;;;;;;;2.80;1.70;;;;;;;5.17;100.00;100351.19;5090745;28;20489;-65
2022/11/25 09:20:52;;;;;;;2.63;1.42;;;;;;;5.21;100.00;100345.63;5097360;28;20511;-64
2022/11/25 09:23:19;;;;;;;2.40;1.73;;;;;;;5.28;100.00;100358.19;5111946;28;20092;-63
2022/11/25 09:26:27;;;;;;;7.13;2.13;;;;;;;5.31;100.00;100362.34;5111627;28;20047;-64
2022/11/25 09:28:53;;;;;;;3.78;1.90;;;;;;;5.38;100.00;100368.75;5110285;28;20027;-64
2022/11/25 09:31:19;;;;;;;6.55;2.30;;;;;;;5.41;100.00;100365.81;5111253;28;20434;-63
2022/11/25 09:33:44;;;;;;;6.57;2.45;;;;;;;5.47;100.00;100367.06;5093413;28;20081;-64
2022/11/25 09:36:12;;;;;;;4.35;2.20;;;;;;;5.54;100.00;100369.06;5112043;28;20039;-63
2022/11/25 09:38:38;;;;;;;2.85;2.10;;;;;;;5.63;100.00;100373.50;5112112;28;20549;-64
2022/11/25 09:47:41;;;;;;;4.68;2.00;;;;;;;5.79;100.00;100377.38;5112003;28;20031;-64
2022/11/25 09:50:15;;;;;;;2.50;1.45;;;;;;;5.84;100.00;100381.28;5068379;28;20047;-64
2022/11/25 09:52:51;;;;;;;7.38;2.00;;;;;;;5.89;100.00;100380.88;5112124;28;20042;-64
2022/11/25 09:55:21;;;;;;;5.38;2.22;;;;;;;5.98;100.00;100393.28;5112041;28;20035;-64
2022/11/25 09:58:24;;;;;;;2.17;1.90;;;;;;;6.05;100.00;100389.09;5112027;28;20427;-65
2022/11/25 10:00:51;;;;;;;3.67;2.00;;;;;;;6.13;100.00;100397.19;5111542;28;20040;-64
2022/11/25 10:03:28;;;;;;;3.40;1.80;;;;;;;6.16;100.00;100401.34;5112005;28;20100;-65
2022/11/25 10:06:12;;;;;;;4.13;2.55;;;;;;;6.14;100.00;100401.50;5111846;28;20280;-64
2022/11/25 10:08:41;;;;;;;2.47;1.77;;;;;;;6.16;100.00;100402.19;5114554;28;20438;-64
2022/11/25 10:11:44;;;;;;;3.58;1.80;;;;;;;6.17;100.00;100398.56;5115293;28;20111;-64
2022/11/25 10:14:24;;;;;;;1.75;1.65;;;;;;;6.21;100.00;100393.81;5115657;28;20110;-65
2022/11/25 10:16:57;;;;;;;3.17;2.38;;;;;;;6.25;100.00;100389.91;5115464;28;20039;-64
2022/11/25 10:19:51;;;;;;;3.72;1.70;;;;;;;6.31;100.00;100396.44;5115668;28;20042;-64
2022/11/25 10:22:24;;;;;;;5.30;2.00;;;;;;;6.32;100.00;100395.47;5115240;28;20032;-65
2022/11/25 10:24:53;;;;;;;2.47;2.08;;;;;;;6.31;100.00;100399.09;5115476;28;20039;-64
2022/11/25 10:27:56;;;;;;;3.45;2.72;;;;;;;6.34;100.00;100404.13;5097025;28;20058;-64
2022/11/25 10:30:32;;;;;;;4.80;2.70;;;;;;;6.34;100.00;100412.88;5114971;28;20213;-64
2022/11/25 10:33:05;;;;;;;3.45;2.33;;;;;;;6.35;100.00;100413.72;5115248;28;20134;-64
2022/11/25 10:35:34;;;;;;;4.60;1.90;;;;;;;6.38;100.00;100410.78;5115226;28;20126;-64
2022/11/25 10:38:02;;;;;;;3.00;2.03;;;;;;;6.39;100.00;100409.78;5115172;28;20042;-64
2022/11/25 10:40:28;;;;;;;2.28;1.83;;;;;;;6.40;100.00;100403.53;5114639;28;20091;-64
2022/11/25 10:42:53;;;;;;;4.57;2.45;;;;;;;6.45;100.00;100414.50;5115033;28;20047;-65
2022/11/25 10:45:27;;;;;;;5.60;3.28;;;;;;;6.41;100.00;100405.22;5114894;28;20118;-64
2022/11/25 10:48:01;;;;;;;7.50;4.00;;;;;;;6.45;100.00;100411.88;5114933;28;20051;-65
2022/11/25 10:50:47;;;;;;;5.20;2.97;;;;;;;6.46;100.00;100414.41;5114642;28;20511;-65
2022/11/25 10:53:21;;;;;;;5.03;2.80;;;;;;;6.47;100.00;100413.41;5114992;28;20391;-65
2022/11/25 10:56:15;;;;;;;6.15;2.35;;;;;;;6.51;100.00;100416.59;5114751;28;20106;-64
2022/11/25 10:58:41;;;;;;;3.53;2.30;;;;;;;6.54;100.00;100418.97;5102994;28;20054;-65
2022/11/25 11:01:21;;;;;;;4.40;2.47;;;;;;;6.56;100.00;100418.81;5114205;28;20035;-65
2022/11/25 11:04:03;;;;;;;4.70;2.38;;;;;;;6.60;100.00;100417.56;5114721;28;20036;-64
2022/11/25 11:06:37;;;;;;;8.30;3.47;;;;;;;6.65;100.00;100418.81;5114483;28;20050;-64
2022/11/25 11:09:03;;;;;;;7.20;3.33;;;;;;;6.68;100.00;100425.63;5114800;28;20028;-64
2022/11/25 11:11:29;;;;;;;6.65;2.25;;;;;;;6.73;100.00;100423.38;5114563;28;20380;-65
2022/11/25 11:14:18;;;;;;;6.75;2.05;;;;;;;6.82;100.00;100424.31;5114714;28;20032;-65
2022/11/25 11:16:52;;;;;;;3.60;2.33;;;;;;;6.87;100.00;100424.72;5114298;28;20038;-64
2022/11/25 11:19:26;;;;;;;6.95;2.03;;;;;;;6.88;100.00;100423.75;5114349;28;20031;-65
2022/11/25 11:21:52;;;;;;;4.55;2.50;;;;;;;6.93;100.00;100424.97;5113770;28;20096;-65
2022/11/25 11:24:27;;;;;;;6.93;2.10;;;;;;;6.94;100.00;100421.34;5114225;28;20032;-65
2022/11/25 11:27:08;;;;;;;5.32;2.42;;;;;;;7.04;100.00;100424.81;5114151;28;20073;-55
2022/11/25 11:29:34;;;;;;;4.55;2.60;;;;;;;7.07;100.00;100429.78;5114145;28;20449;-53
2022/11/25 11:32:03;;;;;;;4.00;2.65;;;;;;;7.15;100.00;100431.72;5113683;28;20063;-56
2022/11/25 11:34:47;;;;;;;5.57;2.70;;;;;;;7.23;100.00;100437.09;5114367;28;20126;-58
2022/11/25 11:37:12;;;;;;;10.93;4.82;;;;;;;7.28;100.00;100437.50;5114017;28;20075;-65
2022/11/25 11:40:01;;;;;;;10.73;4.97;;;;;;;7.34;100.00;100439.56;5113847;28;20059;-65
2022/11/25 11:42:47;;;;;;;6.35;3.33;;;;;;;7.44;100.00;100444.00;5113589;28;20024;-65
2022/11/25 11:45:34;;;;;;;5.95;3.63;;;;;;;7.44;100.00;100447.47;5113609;28;20042;-65
2022/11/25 11:48:18;;;;;;;11.68;5.53;;;;;;;7.50;100.00;100449.53;5113885;28;20427;-65
2022/11/25 11:50:50;;;;;;;10.30;4.68;;;;;;;7.56;100.00;100441.00;5113521;28;20042;-65
2022/11/25 11:53:15;;;;;;;8.35;4.55;;;;;;;7.69;100.00;100445.06;5113579;28;20407;-66
2022/11/25 11:55:41;;;;;;;6.10;3.05;;;;;;;7.75;100.00;100447.13;5113241;28;20119;-65
2022/11/25 11:58:23;;;;;;;4.28;3.00;;;;;;;7.84;100.00;100452.38;5113340;28;20015;-65
2022/11/25 12:01:00;;;;;;;4.38;2.92;;;;;;;7.91;100.00;100457.91;5113026;28;20063;-65
2022/11/25 12:03:28;;;;;;;2.45;2.25;;;;;;;8.02;100.00;100454.19;5113374;28;20039;-65
2022/11/25 12:05:56;;;;;;;6.40;2.55;;;;;;;8.08;100.00;100457.06;5113207;28;20046;-64
2022/11/25 12:08:41;;;;;;;;;;;;;;;8.10;100.00;100460.41;5113757;28;20039;-65
2022/11/25 12:11:13;;;;;;;6.50;2.17;;;;;;;8.19;100.00;100457.81;5112991;28;19919;-65
2022/11/25 12:13:45;;;;;;;4.95;2.13;;;;;;;8.23;100.00;100462.69;5113181;28;20506;-65
2022/11/25 12:16:24;;;;;;;4.10;2.55;;;;;;;8.28;100.00;100468.38;5113369;28;20400;-64
2022/11/25 12:19:01;;;;;;;2.58;2.00;;;;;;;8.31;100.00;100468.06;5113240;28;20050;-64
2022/11/25 12:21:44;;;;;;;8.18;2.67;;;;;;;8.35;100.00;100469.47;5112707;28;20039;-64
2022/11/25 12:24:44;;;;;;;4.38;2.30;;;;;;;8.40;100.00;100467.16;5113091;28;20484;-64
2022/11/25 12:27:19;;;;;;;4.90;2.35;;;;;;;8.42;100.00;100475.81;5094953;28;20043;-65
2022/11/25 12:29:51;;;;;;;2.65;2.38;;;;;;;8.46;100.00;100470.19;5112660;28;20084;-64
2022/11/25 12:32:57;;;;;;;2.92;1.80;;;;;;;8.55;100.00;100471.94;5112570;28;20052;-64
2022/11/25 12:35:44;;;;;;;4.35;1.95;;;;;;;8.79;100.00;100473.91;5112803;28;20039;-64
2022/11/25 12:38:32;;;;;;;7.07;2.30;;;;;;;8.91;100.00;100473.50;5112945;28;20543;-63
2022/11/25 12:41:39;;;;;;;4.53;2.35;;;;;;;9.04;100.00;100474.91;5112431;28;20108;-64
2022/11/25 12:44:13;;;;;;;5.20;2.33;;;;;;;9.23;100.00;100485.31;5112802;28;20109;-64
2022/11/25 12:46:40;;;;;;;5.20;1.85;;;;;;;9.41;100.00;100480.75;5112733;28;20388;-64
2022/11/25 12:49:15;;;;;;;2.47;1.70;;;;;;;9.77;100.00;100484.00;5112682;28;20125;-64
2022/11/25 12:51:59;;;;;;;3.22;2.05;;;;;;;9.87;100.00;100491.03;5112267;28;20278;-64
2022/11/25 12:54:43;;;;;;;4.70;1.67;;;;;;;9.87;100.00;100507.81;5112654;28;20035;-64
2022/11/25 12:57:28;;;;;;;5.72;2.50;;;;;;;9.87;100.00;100499.84;5112480;28;20032;-64
2022/11/25 13:00:19;;;;;;;3.42;1.88;;;;;;;9.83;100.00;100517.13;5112210;28;20116;-65
2022/11/25 13:03:18;;;;;;;8.23;2.22;;;;;;;9.79;100.00;100515.78;5112438;28;20047;-65
2022/11/25 13:05:46;;;;;;;3.10;2.20;;;;;;;9.74;100.00;100521.59;5112286;28;20031;-64
2022/11/25 13:08:22;;;;;;;3.92;1.80;;;;;;;9.70;100.00;100527.38;5112337;28;20034;-64
2022/11/25 13:11:12;;;;;;;2.47;2.08;;;;;;;9.70;100.00;100519.41;5111935;28;20043;-65
2022/11/25 13:14:02;;;;;;;3.15;1.92;;;;;;;9.69;100.00;100523.06;5101688;28;20035;-64
2022/11/25 13:16:29;;;;;;;2.95;1.58;;;;;;;9.68;100.00;100516.06;5091844;28;20078;-64
2022/11/25 13:18:55;;;;;;;4.20;2.30;;;;;;;9.62;100.00;100514.88;5091816;28;20075;-64
2022/11/25 13:21:22;;;;;;;6.15;2.60;;;;;;;9.68;100.00;100510.75;5091367;28;20042;-63
2022/11/25 13:23:52;;;;;;;6.13;2.05;;;;;;;9.65;100.00;100511.06;5074121;28;20111;-64
2022/11/25 13:26:39;;;;;;;4.25;2.13;;;;;;;9.71;100.00;100510.41;5097144;28;20041;-64
2022/11/25 13:29:13;;;;;;;6.05;2.00;;;;;;;9.66;100.00;100518.91;5101547;28;20063;-63
2022/11/25 13:31:59;;;;;;;5.03;2.10;;;;;;;9.60;100.00;100524.03;5100661;28;20699;-63
2022/11/25 13:34:28;;;;;;;3.30;2.08;;;;;;;9.64;100.00;100528.03;5084990;28;20043;-63
2022/11/25 13:36:58;;;;;;;7.53;2.75;;;;;;;9.59;100.00;100527.69;5109593;28;20549;-64
2022/11/25 13:39:30;;;;;;;5.55;2.47;;;;;;;9.59;100.00;100527.69;5112015;28;20416;-64
2022/11/25 13:42:20;;;;;;;7.90;2.40;;;;;;;9.55;100.00;100535.13;5111494;28;20044;-63
2022/11/25 13:44:54;;;;;;;3.40;1.80;;;;;;;9.54;100.00;100538.78;5097820;28;20524;-64
2022/11/25 13:47:40;;;;;;;5.28;2.20;;;;;;;9.59;100.00;100546.31;5113696;28;20503;-64
2022/11/25 13:50:14;;;;;;;4.20;2.08;;;;;;;9.59;100.00;100548.97;5090850;28;20097;-63
2022/11/25 13:52:48;;;;;;;5.00;1.90;;;;;;;9.59;100.00;100548.97;5115854;28;20122;-63
2022/11/25 13:55:16;;;;;;;4.15;1.77;;;;;;;9.65;100.00;100553.63;5115808;28;20447;-63
2022/11/25 13:57:58;;;;;;;2.42;1.60;;;;;;;9.62;100.00;100561.94;5115792;28;20023;-62
2022/11/25 14:00:32;;;;;;;5.00;1.92;;;;;;;9.66;100.00;100564.13;5115467;28;20035;-63
2022/11/25 14:03:18;;;;;;;2.55;1.60;;;;;;;9.55;100.00;100572.38;5096832;28;20036;-64
2022/11/25 14:06:22;;;;;;;4.65;1.75;;;;;;;9.58;100.00;100576.53;5085114;28;20075;-63
2022/11/25 14:08:54;;;;;;;2.03;1.83;;;;;;;9.59;100.00;100580.88;5095228;28;20032;-64
2022/11/25 14:11:48;;;;;;;3.20;1.70;;;;;;;9.57;100.00;100582.84;5100295;28;20081;-65
2022/11/25 14:14:47;;;;;;;5.18;1.67;;;;;;;9.57;100.00;100591.66;5095128;28;20131;-65
2022/11/25 14:17:37;;;;;;;4.03;1.65;;;;;;;9.56;100.00;100597.13;5094980;28;20496;-63
2022/11/25 14:20:17;;;;;;;3.88;1.58;;;;;;;9.54;100.00;100601.78;5094916;28;20064;-62
2022/11/25 14:23:01;;;;;;;4.10;1.65;;;;;;;9.49;100.00;100602.25;5094953;28;20032;-63
2022/11/25 14:25:54;;;;;;;1.17;1.05;;;;;;;9.48;100.00;100608.56;5094808;28;20042;-63
2022/11/25 14:28:34;;;;;;;4.93;1.88;;;;;;;9.50;100.00;100609.25;5094172;28;20044;-64
2022/11/25 14:31:06;;;;;;;2.80;1.70;;;;;;;9.51;100.00;100611.72;5076388;28;20040;-64
2022/11/25 14:34:02;;;;;;;5.13;1.42;;;;;;;9.49;100.00;100595.09;5094742;28;20043;-64
2022/11/25 14:36:35;;;;;;;6.90;1.63;;;;;;;9.48;100.00;100606.75;5094753;28;20123;-64
2022/11/25 14:39:07;;;;;;;1.90;1.20;;;;;;;9.47;100.00;100607.75;5094657;28;20031;-65
2022/11/25 14:41:40;;;;;;;2.55;1.27;;;;;;;9.45;100.00;100612.38;5094367;28;20033;-65
2022/11/25 14:44:13;;;;;;;3.00;1.60;;;;;;;9.45;100.00;100614.19;5094597;28;20050;-65
2022/11/25 14:46:56;;;;;;;2.50;1.42;;;;;;;9.44;100.00;100616.00;5094566;28;20056;-64
2022/11/25 14:49:22;;;;;;;4.13;1.83;;;;;;;9.44;100.00;100616.00;5094569;28;20569;-63
2022/11/25 14:51:50;;;;;;;3.20;1.95;;;;;;;9.46;100.00;100624.69;5075910;28;20063;-63
2022/11/25 14:54:17;;;;;;;5.15;1.67;;;;;;;9.48;100.00;100628.00;5093995;28;20068;-64
2022/11/25 14:56:43;;;;;;;8.57;1.48;;;;;;;9.48;100.00;100627.19;5094291;28;20493;-64
2022/11/25 14:59:09;;;;;;;6.07;1.50;;;;;;;9.46;100.00;100624.69;5094327;28;20036;-63
2022/11/25 15:01:37;;;;;;;3.97;1.60;;;;;;;9.46;100.00;100637.97;5093939;28;20040;-64
2022/11/25 15:04:23;;;;;;;2.05;1.42;;;;;;;9.44;100.00;100631.13;5112701;28;20519;-64
2022/11/25 15:06:55;;;;;;;2.05;1.30;;;;;;;9.42;100.00;100622.50;5114608;28;20070;-64
2022/11/25 15:09:36;;;;;;;5.72;2.22;;;;;;;9.41;100.00;100628.81;5114519;28;20054;-64
2022/11/25 15:12:10;;;;;;;4.32;1.60;;;;;;;9.40;100.00;100635.94;5114319;28;20036;-64
2022/11/25 15:14:40;;;;;;;6.07;1.85;;;;;;;9.40;100.00;100641.25;5114486;28;20039;-64
2022/11/25 15:17:08;;;;;;;2.35;1.42;;;;;;;9.39;100.00;100639.59;5114317;28;20043;-65
2022/11/25 15:19:38;;;;;;;6.53;1.90;;;;;;;9.37;100.00;100646.03;5114475;28;20030;-66
2022/11/25 15:22:05;;;;;;;4.75;2.50;;;;;;;9.35;100.00;100648.88;5113838;28;20104;-66
2022/11/25 15:24:42;;;;;;;4.45;1.48;;;;;;;9.33;100.00;100648.19;5114296;28;20047;-63
2022/11/25 15:27:32;;;;;;;2.95;1.60;;;;;;;9.33;100.00;100653.50;5114147;28;20055;-63
2022/11/25 15:29:58;;;;;;;3.83;1.67;;;;;;;9.27;100.00;100654.13;5114016;28;20142;-64
2022/11/25 15:32:26;;;;;;;7.90;2.28;;;;;;;9.32;100.00;100661.63;5113960;28;20063;-63
2022/11/25 15:34:54;;;;;;;2.97;1.75;;;;;;;9.27;100.00;100662.09;5114164;28;20043;-62
2022/11/25 15:37:20;;;;;;;3.10;1.50;;;;;;;9.29;100.00;100670.75;5113967;28;20027;-64
2022/11/25 15:39:45;;;;;;;6.90;1.73;;;;;;;9.29;100.00;100672.59;5114182;28;20450;-64
2022/11/25 15:42:27;;;;;;;3.30;1.70;;;;;;;9.27;100.00;100675.41;5113703;28;20488;-64
2022/11/25 15:45:02;;;;;;;3.78;1.70;;;;;;;9.27;100.00;100682.53;5113930;28;20035;-64
2022/11/25 15:47:29;;;;;;;6.97;1.30;;;;;;;9.24;100.00;100686.31;5113883;28;20035;-63
2022/11/25 15:50:06;;;;;;;3.38;1.67;;;;;;;9.22;100.00;100685.66;5095548;28;20297;-61
2022/11/25 15:52:39;;;;;;;3.88;1.98;;;;;;;9.22;100.00;100693.63;5113687;28;20101;-63
2022/11/25 15:55:33;;;;;;;3.60;1.38;;;;;;;9.22;100.00;100694.47;5095407;28;20044;-63
2022/11/25 15:58:05;;;;;;;3.90;1.95;;;;;;;9.22;100.00;100696.28;5095137;28;20040;-63
2022/11/25 16:00:31;;;;;;;3.30;1.77;;;;;;;9.20;100.00;100692.97;5113146;28;20122;-63
2022/11/25 16:02:57;;;;;;;4.93;1.67;;;;;;;9.21;100.00;100700.78;5113462;28;20122;-62
2022/11/25 16:05:27;;;;;;;2.15;1.38;;;;;;;9.19;100.00;100700.09;5112379;28;20028;-63
2022/11/25 16:07:52;;;;;;;3.42;1.63;;;;;;;9.20;100.00;100688.47;5113241;28;20039;-63
2022/11/25 16:10:21;;;;;;;8.40;2.17;;;;;;;9.17;100.00;100694.06;5112921;28;20038;-63
2022/11/25 16:13:14;;;;;;;4.00;2.10;;;;;;;9.14;100.00;100699.72;5113263;28;20024;-64
2022/11/25 16:15:56;;;;;;;3.90;2.35;;;;;;;9.10;100.00;100708.13;5113020;28;20047;-64
2022/11/25 16:18:30;;;;;;;3.92;1.92;;;;;;;9.08;100.00;100708.28;5113295;28;20412;-64
2022/11/25 16:21:00;;;;;;;3.25;2.10;;;;;;;9.04;100.00;100716.72;5112523;28;20039;-64
2022/11/25 16:23:26;;;;;;;5.22;1.63;;;;;;;8.95;100.00;100711.34;5112918;28;20042;-64
2022/11/25 16:25:59;;;;;;;5.82;2.28;;;;;;;8.92;100.00;100716.94;5094597;28;20136;-64
2022/11/25 16:28:25;;;;;;;3.72;2.00;;;;;;;8.89;100.00;100717.25;5112955;28;20043;-64
2022/11/25 16:30:53;;;;;;;3.63;1.95;;;;;;;8.82;100.00;100721.50;5112688;28;20028;-64
2022/11/25 16:33:18;;;;;;;1.92;1.42;;;;;;;8.76;100.00;100727.41;5112973;28;20051;-64
2022/11/25 16:35:44;;;;;;;5.10;2.00;;;;;;;8.68;100.00;100735.28;5112811;28;20032;-64
2022/11/25 16:38:10;;;;;;;4.25;1.70;;;;;;;8.63;100.00;100738.38;5094489;28;20549;-64
2022/11/25 16:40:37;;;;;;;4.15;2.20;;;;;;;8.55;100.00;100734.81;5112423;28;20074;-64
2022/11/25 16:43:05;;;;;;;8.33;2.10;;;;;;;8.52;100.00;100733.28;5112684;28;20036;-65
2022/11/25 16:45:30;;;;;;;3.38;1.55;;;;;;;8.51;100.00;100741.38;5112754;28;20819;-64
2022/11/25 16:47:56;;;;;;;2.55;1.55;;;;;;;8.48;100.00;100739.88;5112642;28;20050;-64
2022/11/25 16:50:21;;;;;;;5.75;2.63;;;;;;;8.47;100.00;100740.00;5112311;28;20040;-65
2022/11/25 16:52:47;;;;;;;6.10;2.20;;;;;;;8.41;100.00;100741.41;5112551;28;20495;-65
2022/11/25 16:55:12;;;;;;;5.78;2.03;;;;;;;8.39;100.00;100752.19;5112342;28;20495;-64
2022/11/25 16:57:40;;;;;;;10.82;2.92;;;;;;;8.35;100.00;100766.75;5112569;28;20032;-66
2022/11/25 17:00:11;;;;;;;3.45;2.22;;;;;;;8.28;100.00;100773.59;5112288;28;20074;-68
2022/11/25 17:02:36;;;;;;;4.32;2.60;;;;;;;8.24;100.00;100780.19;5112426;28;20044;-69
2022/11/25 17:05:22;;;;;;;3.75;2.10;;;;;;;8.21;100.00;100775.13;5112419;28;20024;-69
2022/11/25 17:07:51;;;;;;;11.27;3.58;;;;;;;8.20;100.00;100789.41;5112225;28;20437;-69
2022/11/25 17:10:18;;;;;;;7.68;3.45;;;;;;;8.20;100.00;100785.91;5111867;28;20522;-69
2022/11/25 17:12:45;;;;;;;6.55;2.88;;;;;;;8.20;100.00;100788.56;5112325;28;20118;-68
2022/11/25 17:15:15;;;;;;;6.43;3.78;;;;;;;8.12;100.00;100790.13;5112244;28;20122;-68
2022/11/25 17:17:41;;;;;;;5.78;2.92;;;;;;;8.16;100.00;100793.34;5094084;28;20028;-69
2022/11/25 17:20:14;;;;;;;11.18;3.97;;;;;;;8.13;100.00;100791.78;5111934;28;20046;-68